Airfield :
LOGIN :

Register | Disclaimer

   EN    FR    IT 

 










Legend :    VFR   Marginal VFR   IFR   Intensive IFR   Very Intensive IFR
Visi :
Ceiling :
>= 8 km
>= 3000ft
5 to 8 km
1000 to 3000 ft
1500m to 5 km
500 to 1000 ft
800 to 1500m
200 to 500 ft
< 800m
< 200 ft
Symbols :   Thunderstorms  Fog  Heavy snow  Heavy precipitations  Wind > 20 kt
SIGMETs :     Misc.  Thunderstorms  Icing  Turbulence  Mountain Waves  Volcanic Ashes







- Airport Elevation : 87 ft
- IATA code : FSC
- Download approach charts


LFKF - Figari

CURRENT METAR :
  • 180800Z AUTO 09006KT 050V130 9999 ///CB 29/18 Q1016 BECMG 21010KT FEW040 SCT060

EXPIRED METARs :
  • 180730Z AUTO 08005KT 040V120 CAVOK 28/18 Q1016 BECMG 21010KT
  • 180700Z AUTO 06005KT 020V110 CAVOK 27/19 Q1016 BECMG 21010KT
  • 180630Z AUTO 05004KT 020V080 CAVOK 25/20 Q1015 BECMG 21010KT
  • 180600Z AUTO 04002KT CAVOK 22/19 Q1015 BECMG 21010KT
  • 180530Z AUTO VRB02KT CAVOK 19/18 Q1015 NOSIG
  • 180500Z AUTO VRB01KT CAVOK 18/17 Q1015 NOSIG

TAF TAF LFKF
Valid from the 18 at 03:00 until the 19 at 03:00 UTC


180200Z 1803/1903 03004KT 9999 FEW040 SCT060
BECMG 1807/1809 21010KT
TEMPO 1810/1816 FEW035CB BKN050 BKN200
BECMG 1818/1820 VRB03KT
No reported NOTAMs for that airfield.
2 SIGMETs reported for the Marseille FIR (LFMM) :
 
Embedded thunderstorms
LFMM SIGMET 2 VALID 180800/181000 LFPW
LFMM MARSEILLE FIR/UIR EMBD TS FCST WI N3900 E00800 - N3900 E00430 - N4000 E00430 - N3900 E00800 TOP FL400 MOV SE 10KT NC=
Embedded thunderstorms
LFMM SIGMET 1 VALID 180620/180800 LFPW
LFMM MARSEILLE FIR/UIR EMBD TS FCST WI N3900 E00730 - N3900 E00430 - N3945 E00430 - N3930 E00615 - N3900 E00730 TOP FL370 MOV SE 10KT NC=



MET'MAP, your aeronautical weather chart ! - Copyright ORBIFLY December 2007 - Disclaimer

ORBIFLY MET'MAP TEAM :

Programming & Development : Alexandra Zaïnal
Concept & Development : Baudouin d'Aumeries
Co-Development & Prog : Marc-Olivier Méhu
Technical & hardware support : Manuel Goepfert

Contact : metmap@orbifly.com




SOURCES & CREDITS :

   NOAA